Isuzu Maru — JD3515 — position and weather

sailwx.info

Track history (hours):
 
Tides and Currents Weather Stations Pressure Air Temp Water Temp Dewpoint Dewpoint Depression Visibility Wind Speed Wind Dir Waves Ship Positions

Isuzu Maru

Last reported at 2017-Nov-18 04:46 UTC. Time now 2017-Nov-20 15:30 UTC.
Position N 34°36' E 135°03'.

Length 74 m; draft 4.5 m.

Type: Tanker. MMSI: 431004619.

Date/timePositionNaut miles runAvg speedWind from/ knotsBaromVisibWave heightAir tempDewpointWater temp
2017-Nov-18 04:46N 34°36' E 135°03'3 9.7
2017-Nov-18 04:29N 34°35' E 135°06'612.6
2017-Nov-18 04:00N 34°36' E 135°14'612.2
2017-Nov-18 03:29N 34°36' E 135°21'4 8.4
2017-Nov-18 03:00N 34°35' E 135°26'0 0.1
2017-Nov-18 02:30N 34°35' E 135°26'0 0.0
2017-Nov-18 02:00N 34°35' E 135°26'0 0.0
2017-Nov-17 23:36N 34°35' E 135°26'0 1.7
2017-Nov-17 23:26N 34°35' E 135°25'2 0.3
2017-Nov-17 18:00N 34°35' E 135°23'0 0.0
2017-Nov-17 16:18N 34°35' E 135°23'3 8.6
2017-Nov-17 16:00N 34°34' E 135°21'613.1
2017-Nov-17 15:30N 34°30' E 135°14'712.8
2017-Nov-17 14:56N 34°25' E 135°08'712.4
2017-Nov-17 14:22N 34°20' E 135°02'411.4
2017-Nov-17 14:00N 34°16' E 134°59'612.4
2017-Nov-17 13:30N 34°10' E 134°58'4 0.2
2017-Nov-16 12:37N 34°06' E 134°56'213.6
2017-Nov-16 12:29N 34°08' E 134°57'713.5
2017-Nov-16 11:58N 34°15' E 134°58'1712.0
2017-Nov-16 10:33N 34°28' E 135°11'212.7
2017-Nov-16 10:24N 34°30' E 135°13'512.9
2017-Nov-16 10:00N 34°33' E 135°17'612.1
2017-Nov-16 09:29N 34°36' E 135°24'2 4.8
2017-Nov-16 09:00N 34°34' E 135°26'0 0.1
2017-Nov-16 05:18N 34°35' E 135°25'1 4.3
2017-Nov-16 05:00N 34°36' E 135°25'612.4
2017-Nov-16 04:30N 34°36' E 135°17'713.8
2017-Nov-16 04:00N 34°35' E 135°09'5 0.2
2017-Nov-15 05:30N 34°36' E 135°03'511.1
2017-Nov-15 05:00N 34°36' E 135°10'612.0
2017-Nov-15 04:30N 34°36' E 135°17'611.8
2017-Nov-15 04:00N 34°36' E 135°24'2 0.5
2017-Nov-15 00:14N 34°34' E 135°26'0 0.7
2017-Nov-15 00:00N 34°34' E 135°26'2 1.2
2017-Nov-14 22:03N 34°36' E 135°23'0 0.0
2017-Nov-14 21:45N 34°36' E 135°23'0 0.0
2017-Nov-14 21:27N 34°36' E 135°23'0 0.0
2017-Nov-14 20:51N 34°36' E 135°23'0 0.0
2017-Nov-14 20:21N 34°36' E 135°23'0 0.0
2017-Nov-14 19:57N 34°36' E 135°23'0 0.0
2017-Nov-14 19:21N 34°36' E 135°23'0 0.0
2017-Nov-14 18:51N 34°36' E 135°23'0 0.0
2017-Nov-14 18:27N 34°36' E 135°23'0 0.0
2017-Nov-14 17:57N 34°36' E 135°23'0 0.0
2017-Nov-14 16:15N 34°36' E 135°23'0 0.0
2017-Nov-14 15:57N 34°36' E 135°23'0 0.0
2017-Nov-14 15:10N 34°36' E 135°23'1 5.4
2017-Nov-14 15:00N 34°36' E 135°22'713.3
2017-Nov-14 14:30N 34°35' E 135°14'713.8
2017-Nov-14 14:00N 34°34' E 135°06'814.2
2017-Nov-14 13:28N 34°36' E 134°56'24 0.7
2017-Nov-13 01:58N 34°35' E 135°26'0 0.1
2017-Nov-13 01:23N 34°35' E 135°26'0 0.0
2017-Nov-13 00:16N 34°35' E 135°26'0 0.2
2017-Nov-13 00:00N 34°35' E 135°26'0 0.1
2017-Nov-12 23:30N 34°35' E 135°26'0 0.0
2017-Nov-12 23:00N 34°35' E 135°26'2 4.1
2017-Nov-12 22:30N 34°36' E 135°24'1 1.4
2017-Nov-12 21:44N 34°36' E 135°23'0 0.0
2017-Nov-12 21:20N 34°36' E 135°23'0 0.0
2017-Nov-12 19:44N 34°36' E 135°23'0 0.0
2017-Nov-12 18:44N 34°36' E 135°23'0 0.0
2017-Nov-12 18:20N 34°36' E 135°23'0 0.0
2017-Nov-12 17:50N 34°36' E 135°23'0 0.0
2017-Nov-12 17:08N 34°36' E 135°23'0 0.0
2017-Nov-12 16:56N 34°36' E 135°23'0 0.0
2017-Nov-12 16:20N 34°36' E 135°23'0 0.0
2017-Nov-12 15:38N 34°36' E 135°23'0 0.0
2017-Nov-12 15:26N 34°36' E 135°23'0 0.0
2017-Nov-12 14:56N 34°36' E 135°23'0 0.0
2017-Nov-12 14:20N 34°36' E 135°23'0 0.0
2017-Nov-12 13:56N 34°36' E 135°23'0 0.0
2017-Nov-12 13:20N 34°36' E 135°23'0 0.0
2017-Nov-12 12:56N 34°36' E 135°23'0 0.0
2017-Nov-12 12:26N 34°36' E 135°23'0 0.0
2017-Nov-12 11:50N 34°36' E 135°23'0 0.0
2017-Nov-12 11:26N 34°36' E 135°23'0 0.0
2017-Nov-12 10:50N 34°36' E 135°23'0 0.1
2017-Nov-12 10:30N 34°36' E 135°23'611.3
2017-Nov-12 10:00N 34°35' E 135°16'713.4
2017-Nov-12 09:30N 34°35' E 135°08'612.2
2017-Nov-12 09:00N 34°37' E 135°01'  
2017-Nov-09 07:14N 34°36' E 135°03'210.1
2017-Nov-09 07:00N 34°34' E 135°05'612.3
2017-Nov-09 06:30N 34°28' E 135°03'812.3
2017-Nov-09 05:52N 34°21' E 135°00'512.1
2017-Nov-09 05:29N 34°16' E 134°59'712.2
2017-Nov-09 04:55N 34°09' E 134°59'  
Track history (hours):
 
Tides and Currents Weather Stations Pressure Air Temp Water Temp Dewpoint Dewpoint Depression Visibility Wind Speed Wind Dir Waves Ship Positions

Isuzu Maru

Last reported at 2017-Nov-18 04:46 UTC. Time now 2017-Nov-20 15:30 UTC.
Position N 34°36' E 135°03'.

Length 74 m; draft 4.5 m.

Type: Tanker. MMSI: 431004619.

Date/timePositionNaut miles runAvg speedWind from/ knotsBaromVisibWave heightAir tempDewpointWater temp
2017-Nov-18 04:46N 34°36' E 135°03'3 9.7
2017-Nov-18 04:29N 34°35' E 135°06'612.6
2017-Nov-18 04:00N 34°36' E 135°14'612.2
2017-Nov-18 03:29N 34°36' E 135°21'4 8.4
2017-Nov-18 03:00N 34°35' E 135°26'0 0.1
2017-Nov-18 02:30N 34°35' E 135°26'0 0.0
2017-Nov-18 02:00N 34°35' E 135°26'0 0.0
2017-Nov-17 23:36N 34°35' E 135°26'0 1.7
2017-Nov-17 23:26N 34°35' E 135°25'2 0.3
2017-Nov-17 18:00N 34°35' E 135°23'0 0.0
2017-Nov-17 16:18N 34°35' E 135°23'3 8.6
2017-Nov-17 16:00N 34°34' E 135°21'613.1
2017-Nov-17 15:30N 34°30' E 135°14'712.8
2017-Nov-17 14:56N 34°25' E 135°08'712.4
2017-Nov-17 14:22N 34°20' E 135°02'411.4
2017-Nov-17 14:00N 34°16' E 134°59'612.4
2017-Nov-17 13:30N 34°10' E 134°58'4 0.2
2017-Nov-16 12:37N 34°06' E 134°56'213.6
2017-Nov-16 12:29N 34°08' E 134°57'713.5
2017-Nov-16 11:58N 34°15' E 134°58'1712.0
2017-Nov-16 10:33N 34°28' E 135°11'212.7
2017-Nov-16 10:24N 34°30' E 135°13'512.9
2017-Nov-16 10:00N 34°33' E 135°17'612.1
2017-Nov-16 09:29N 34°36' E 135°24'2 4.8
2017-Nov-16 09:00N 34°34' E 135°26'0 0.1
2017-Nov-16 05:18N 34°35' E 135°25'1 4.3
2017-Nov-16 05:00N 34°36' E 135°25'612.4
2017-Nov-16 04:30N 34°36' E 135°17'713.8
2017-Nov-16 04:00N 34°35' E 135°09'5 0.2
2017-Nov-15 05:30N 34°36' E 135°03'511.1
2017-Nov-15 05:00N 34°36' E 135°10'612.0
2017-Nov-15 04:30N 34°36' E 135°17'611.8
2017-Nov-15 04:00N 34°36' E 135°24'2 0.5
2017-Nov-15 00:14N 34°34' E 135°26'0 0.7
2017-Nov-15 00:00N 34°34' E 135°26'2 1.2
2017-Nov-14 22:03N 34°36' E 135°23'0 0.0
2017-Nov-14 21:45N 34°36' E 135°23'0 0.0
2017-Nov-14 21:27N 34°36' E 135°23'0 0.0
2017-Nov-14 20:51N 34°36' E 135°23'0 0.0
2017-Nov-14 20:21N 34°36' E 135°23'0 0.0
2017-Nov-14 19:57N 34°36' E 135°23'0 0.0
2017-Nov-14 19:21N 34°36' E 135°23'0 0.0
2017-Nov-14 18:51N 34°36' E 135°23'0 0.0
2017-Nov-14 18:27N 34°36' E 135°23'0 0.0
2017-Nov-14 17:57N 34°36' E 135°23'0 0.0
2017-Nov-14 16:15N 34°36' E 135°23'0 0.0
2017-Nov-14 15:57N 34°36' E 135°23'0 0.0
2017-Nov-14 15:10N 34°36' E 135°23'1 5.4
2017-Nov-14 15:00N 34°36' E 135°22'713.3
2017-Nov-14 14:30N 34°35' E 135°14'713.8
2017-Nov-14 14:00N 34°34' E 135°06'814.2
2017-Nov-14 13:28N 34°36' E 134°56'24 0.7
2017-Nov-13 01:58N 34°35' E 135°26'0 0.1
2017-Nov-13 01:23N 34°35' E 135°26'0 0.0
2017-Nov-13 00:16N 34°35' E 135°26'0 0.2
2017-Nov-13 00:00N 34°35' E 135°26'0 0.1
2017-Nov-12 23:30N 34°35' E 135°26'0 0.0
2017-Nov-12 23:00N 34°35' E 135°26'2 4.1
2017-Nov-12 22:30N 34°36' E 135°24'1 1.4
2017-Nov-12 21:44N 34°36' E 135°23'0 0.0
2017-Nov-12 21:20N 34°36' E 135°23'0 0.0
2017-Nov-12 19:44N 34°36' E 135°23'0 0.0
2017-Nov-12 18:44N 34°36' E 135°23'0 0.0
2017-Nov-12 18:20N 34°36' E 135°23'0 0.0
2017-Nov-12 17:50N 34°36' E 135°23'0 0.0
2017-Nov-12 17:08N 34°36' E 135°23'0 0.0
2017-Nov-12 16:56N 34°36' E 135°23'0 0.0
2017-Nov-12 16:20N 34°36' E 135°23'0 0.0
2017-Nov-12 15:38N 34°36' E 135°23'0 0.0
2017-Nov-12 15:26N 34°36' E 135°23'0 0.0
2017-Nov-12 14:56N 34°36' E 135°23'0 0.0
2017-Nov-12 14:20N 34°36' E 135°23'0 0.0
2017-Nov-12 13:56N 34°36' E 135°23'0 0.0
2017-Nov-12 13:20N 34°36' E 135°23'0 0.0
2017-Nov-12 12:56N 34°36' E 135°23'0 0.0
2017-Nov-12 12:26N 34°36' E 135°23'0 0.0
2017-Nov-12 11:50N 34°36' E 135°23'0 0.0
2017-Nov-12 11:26N 34°36' E 135°23'0 0.0
2017-Nov-12 10:50N 34°36' E 135°23'0 0.1
2017-Nov-12 10:30N 34°36' E 135°23'611.3
2017-Nov-12 10:00N 34°35' E 135°16'713.4
2017-Nov-12 09:30N 34°35' E 135°08'612.2
2017-Nov-12 09:00N 34°37' E 135°01'  
2017-Nov-09 07:14N 34°36' E 135°03'210.1
2017-Nov-09 07:00N 34°34' E 135°05'612.3
2017-Nov-09 06:30N 34°28' E 135°03'812.3
2017-Nov-09 05:52N 34°21' E 135°00'512.1
2017-Nov-09 05:29N 34°16' E 134°59'712.2
2017-Nov-09 04:55N 34°09' E 134°59'  

Dump ship's entire track history